createdAt,value
2022-11-11T00:01:26.966Z,72.48
2022-11-11T00:04:01.183Z,73.05
2022-11-11T00:06:34.117Z,72.72
2022-11-11T00:09:07.052Z,73.14
2022-11-11T00:11:39.881Z,73.14
2022-11-11T00:14:12.798Z,72.60
2022-11-11T00:17:03.381Z,72.38
2022-11-11T00:19:55.426Z,73.16
2022-11-11T00:22:45.440Z,73.40
2022-11-11T00:25:19.449Z,73.16
2022-11-11T00:27:52.380Z,72.55
2022-11-11T00:30:25.329Z,72.90
2022-11-11T00:32:58.490Z,73.19
2022-11-11T00:35:51.070Z,72.89
2022-11-11T00:38:41.672Z,72.62
2022-11-11T00:41:16.390Z,73.16
2022-11-11T00:43:49.804Z,72.59
2022-11-11T00:46:40.451Z,72.86
2022-11-11T00:49:30.711Z,72.25
2022-11-11T00:52:05.155Z,72.38
2022-11-11T00:54:38.037Z,72.36
2022-11-11T00:57:10.850Z,72.05
2022-11-11T00:59:43.708Z,72.36
2022-11-11T01:02:16.593Z,72.39
2022-11-11T01:04:49.593Z,72.90
2022-11-11T01:07:24.241Z,71.97
2022-11-11T01:09:57.268Z,72.45
2022-11-11T01:12:30.142Z,72.14
2022-11-11T01:15:03.166Z,72.49
2022-11-11T01:17:36.040Z,72.26
2022-11-11T01:20:09.831Z,72.59
2022-11-11T01:22:44.257Z,72.76
2022-11-11T01:25:17.363Z,72.02
2022-11-11T01:27:50.364Z,72.77
2022-11-11T01:30:23.198Z,72.59
2022-11-11T01:32:56.135Z,72.35
2022-11-11T01:35:29.934Z,71.77
2022-11-11T01:38:04.361Z,71.91
2022-11-11T01:40:49.624Z,71.63
2022-11-11T01:43:25.472Z,71.60
2022-11-11T01:46:00.496Z,72.15
2022-11-11T01:48:54.339Z,71.55
2022-11-11T01:51:35.599Z,71.99
2022-11-11T01:54:13.948Z,71.93
2022-11-11T01:56:50.723Z,71.45
2022-11-11T01:59:23.853Z,72.06
2022-11-11T02:01:57.084Z,72.34
2022-11-11T02:04:47.970Z,71.61
2022-11-11T02:07:20.957Z,72.37
2022-11-11T02:09:57.460Z,72.20
2022-11-11T02:12:47.921Z,71.79
2022-11-11T02:15:21.104Z,72.01
2022-11-11T02:17:55.108Z,71.97
2022-11-11T02:20:31.793Z,71.51
2022-11-11T02:23:09.637Z,71.50
2022-11-11T02:25:50.350Z,72.07
2022-11-11T02:28:27.016Z,72.23
2022-11-11T02:30:59.867Z,71.67
2022-11-11T02:33:33.165Z,71.94
2022-11-11T02:36:07.171Z,72.24
2022-11-11T02:38:40.237Z,72.11
2022-11-11T02:41:32.389Z,72.18
2022-11-11T02:44:06.148Z,71.89
2022-11-11T02:46:39.204Z,72.13
2022-11-11T02:49:12.321Z,72.42
2022-11-11T02:51:45.176Z,72.43
2022-11-11T02:54:18.122Z,72.08
2022-11-11T02:57:11.052Z,72.09
2022-11-11T02:59:44.396Z,72.23
2022-11-11T03:02:17.599Z,72.45
2022-11-11T03:04:50.558Z,72.51
2022-11-11T03:07:23.559Z,72.38
2022-11-11T03:09:56.480Z,72.58
2022-11-11T03:12:30.946Z,72.16
2022-11-11T03:15:05.954Z,72.06
2022-11-11T03:17:41.187Z,72.47
2022-11-11T03:20:33.277Z,72.07
2022-11-11T03:23:08.180Z,72.41
2022-11-11T03:25:43.255Z,72.44
2022-11-11T03:28:19.002Z,72.30
2022-11-11T03:30:51.988Z,72.61
2022-11-11T03:33:25.275Z,72.61
2022-11-11T03:35:58.424Z,72.40
2022-11-11T03:38:30.231Z,72.25
2022-11-11T03:41:03.194Z,72.10
2022-11-11T03:43:37.665Z,71.93
2022-11-11T03:46:10.725Z,72.31
2022-11-11T03:48:43.531Z,72.00
2022-11-11T03:51:16.550Z,71.80
2022-11-11T03:53:49.403Z,72.24
2022-11-11T03:56:22.239Z,72.41
2022-11-11T03:58:56.568Z,72.03
2022-11-11T04:01:47.257Z,72.38
2022-11-11T04:04:46.244Z,72.25
2022-11-11T04:07:37.538Z,72.01
2022-11-11T04:10:25.717Z,71.98
2022-11-11T04:13:18.704Z,72.52
2022-11-11T04:16:12.975Z,72.13
2022-11-11T04:19:03.869Z,72.19
2022-11-11T04:21:45.906Z,72.23
2022-11-11T04:24:38.117Z,72.25
2022-11-11T04:27:12.959Z,72.39
2022-11-11T04:29:47.089Z,72.30
2022-11-11T04:32:40.105Z,72.53
2022-11-11T04:35:14.787Z,72.69
2022-11-11T04:37:50.050Z,72.42
2022-11-11T04:40:40.628Z,72.45
2022-11-11T04:43:13.408Z,72.89
2022-11-11T04:45:45.349Z,72.66
2022-11-11T04:48:20.940Z,72.36
2022-11-11T04:50:54.233Z,72.60
2022-11-11T04:53:27.165Z,72.27
2022-11-11T04:56:17.729Z,72.07
2022-11-11T04:59:11.366Z,72.19
2022-11-11T05:02:01.842Z,72.27
2022-11-11T05:04:36.054Z,72.17
2022-11-11T05:07:26.623Z,72.62
2022-11-11T05:09:59.736Z,72.32
2022-11-11T05:12:32.591Z,72.13
2022-11-11T05:15:23.389Z,72.15
2022-11-11T05:18:10.243Z,72.45
2022-11-11T05:21:06.743Z,72.46
2022-11-11T05:23:53.401Z,72.26
2022-11-11T05:26:31.753Z,72.44
2022-11-11T05:29:05.089Z,72.49
2022-11-11T05:31:38.133Z,72.16
2022-11-11T05:34:11.064Z,71.98
2022-11-11T05:36:45.295Z,72.65
2022-11-11T05:39:18.155Z,72.46
2022-11-11T05:41:50.912Z,72.55
2022-11-11T05:44:23.750Z,72.32
2022-11-11T05:46:56.561Z,72.39
2022-11-11T05:49:29.464Z,72.06
2022-11-11T05:52:04.511Z,72.11
2022-11-11T05:54:37.434Z,72.30
2022-11-11T05:57:10.648Z,72.40
2022-11-11T05:59:43.885Z,72.37
2022-11-11T06:02:17.272Z,72.02
2022-11-11T06:04:50.130Z,71.93
2022-11-11T06:07:24.401Z,72.08
2022-11-11T06:10:18.157Z,72.50
2022-11-11T06:13:07.674Z,71.96
2022-11-11T06:15:41.915Z,72.34
2022-11-11T06:18:14.713Z,71.72
2022-11-11T06:20:47.581Z,71.90
2022-11-11T06:23:22.382Z,71.73
2022-11-11T06:26:14.678Z,71.73
2022-11-11T06:28:50.183Z,71.92
2022-11-11T06:31:24.973Z,71.96
2022-11-11T06:33:57.745Z,72.13
2022-11-11T06:36:30.577Z,72.05
2022-11-11T06:39:05.094Z,72.41
2022-11-11T06:41:37.913Z,72.30
2022-11-11T06:44:10.746Z,72.39
2022-11-11T06:46:43.749Z,72.32
2022-11-11T06:49:16.614Z,72.04
2022-11-11T06:51:50.249Z,72.49
2022-11-11T06:54:24.547Z,72.05
2022-11-11T06:56:57.360Z,72.29
2022-11-11T06:59:30.201Z,72.44
2022-11-11T07:02:02.967Z,72.10
2022-11-11T07:04:35.763Z,72.30
2022-11-11T07:07:08.692Z,72.07
2022-11-11T07:09:43.657Z,72.11
2022-11-11T07:12:16.526Z,72.36
2022-11-11T07:14:49.359Z,72.45
2022-11-11T07:17:22.223Z,72.43
2022-11-11T07:19:55.327Z,72.09
2022-11-11T07:22:28.266Z,72.51
2022-11-11T07:25:02.647Z,72.08
2022-11-11T07:27:38.159Z,72.21
2022-11-11T07:30:12.701Z,72.19
2022-11-11T07:32:47.146Z,72.33
2022-11-11T07:35:20.731Z,72.28
2022-11-11T07:37:53.536Z,72.46
2022-11-11T07:40:27.735Z,72.04
2022-11-11T07:43:00.554Z,72.31
2022-11-11T07:45:33.462Z,72.41
2022-11-11T07:48:06.620Z,72.46
2022-11-11T07:50:39.461Z,72.97
2022-11-11T07:53:12.265Z,72.33
2022-11-11T07:55:47.964Z,72.11
2022-11-11T07:58:20.846Z,72.15
2022-11-11T08:00:53.750Z,71.93
2022-11-11T08:03:27.070Z,72.01
2022-11-11T08:06:00.030Z,71.79
2022-11-11T08:08:32.913Z,71.28
2022-11-11T08:11:07.560Z,70.97
2022-11-11T08:13:42.312Z,70.92
2022-11-11T08:16:16.097Z,70.75
2022-11-11T08:18:48.913Z,70.93
2022-11-11T08:21:22.115Z,70.48
2022-11-11T08:26:50.281Z,70.59
2022-11-11T08:29:23.188Z,70.60
2022-11-11T08:31:57.712Z,70.57
2022-11-11T08:34:30.647Z,70.90
2022-11-11T08:37:03.458Z,70.92
2022-11-11T08:39:36.566Z,70.93
2022-11-11T08:42:11.487Z,70.52
2022-11-11T08:44:44.384Z,70.57
2022-11-11T08:47:17.218Z,70.71
2022-11-11T08:49:51.041Z,70.68
2022-11-11T08:52:24.003Z,70.93
2022-11-11T08:54:56.889Z,70.45
2022-11-11T08:57:31.158Z,70.40
2022-11-11T09:00:04.777Z,70.34
2022-11-11T09:02:37.899Z,70.15
2022-11-11T09:05:11.004Z,70.15
2022-11-11T09:07:43.922Z,70.41
2022-11-11T09:10:17.040Z,70.03
2022-11-11T09:12:57.262Z,69.65
2022-11-11T09:15:30.704Z,69.92
2022-11-11T09:18:03.844Z,69.66
2022-11-11T09:20:37.399Z,69.40
2022-11-11T09:23:10.223Z,69.72
2022-11-11T09:25:43.205Z,69.84
2022-11-11T09:28:17.606Z,69.87
2022-11-11T09:30:50.446Z,69.84
2022-11-11T09:33:23.498Z,69.32
2022-11-11T09:35:58.830Z,68.88
2022-11-11T09:38:31.609Z,69.10
2022-11-11T09:41:16.731Z,68.78
2022-11-11T09:43:56.118Z,68.33
2022-11-11T09:46:36.573Z,68.25
2022-11-11T09:49:29.752Z,67.75
2022-11-11T09:52:10.860Z,68.16
2022-11-11T09:54:51.379Z,67.78
2022-11-11T09:57:32.718Z,67.89
2022-11-11T10:00:21.651Z,67.63
2022-11-11T10:02:58.851Z,67.81
2022-11-11T10:05:35.765Z,67.11
2022-11-11T10:08:17.064Z,66.07
2022-11-11T10:10:51.563Z,66.21
2022-11-11T10:13:30.443Z,66.24
2022-11-11T10:16:11.428Z,65.69
2022-11-11T10:18:57.396Z,65.82
2022-11-11T10:22:11.075Z,65.60
2022-11-11T10:24:47.033Z,65.67
2022-11-11T10:27:23.924Z,65.83
2022-11-11T10:29:57.871Z,65.98
2022-11-11T10:32:35.584Z,65.04
2022-11-11T10:35:17.486Z,65.34
2022-11-11T10:37:56.995Z,64.90
2022-11-11T10:40:38.022Z,64.77
2022-11-11T10:43:20.904Z,64.57
2022-11-11T10:46:02.945Z,64.71
2022-11-11T10:48:46.985Z,64.21
2022-11-11T10:51:22.610Z,64.46
2022-11-11T10:54:03.137Z,64.01
2022-11-11T10:56:40.201Z,63.66
2022-11-11T10:59:22.436Z,62.42
2022-11-11T11:02:00.103Z,62.99
2022-11-11T11:04:41.429Z,62.80
2022-11-11T11:07:21.026Z,63.18
2022-11-11T11:09:59.138Z,63.27
2022-11-11T11:12:39.835Z,62.95
2022-11-11T11:15:18.055Z,62.65
2022-11-11T11:17:57.400Z,62.59
2022-11-11T11:20:31.609Z,63.02
2022-11-11T11:23:05.067Z,63.37
2022-11-11T11:25:37.974Z,63.68
2022-11-11T11:28:24.493Z,63.04
2022-11-11T11:31:02.747Z,63.87
2022-11-11T11:33:54.038Z,64.03
2022-11-11T11:36:28.188Z,64.36
2022-11-11T11:39:03.548Z,64.31
2022-11-11T11:41:41.251Z,63.44
2022-11-11T11:44:27.805Z,62.90
2022-11-11T11:47:22.324Z,63.04
2022-11-11T11:50:17.542Z,62.90
2022-11-11T11:53:02.919Z,62.71
2022-11-11T11:55:39.267Z,62.82
2022-11-11T11:58:26.829Z,62.60
2022-11-11T12:01:05.663Z,62.94
2022-11-11T12:04:11.463Z,62.64
2022-11-11T12:06:56.999Z,62.32
2022-11-11T12:09:45.859Z,62.64
2022-11-11T12:12:28.062Z,62.85
2022-11-11T12:15:09.506Z,62.29
2022-11-11T12:17:54.942Z,62.54
2022-11-11T12:20:36.461Z,62.27
2022-11-11T12:23:29.321Z,62.33
2022-11-11T12:26:14.270Z,62.09
2022-11-11T12:29:04.564Z,62.05
2022-11-11T12:31:59.946Z,62.61
2022-11-11T12:35:04.726Z,62.99
2022-11-11T12:37:47.046Z,63.20
2022-11-11T12:40:26.844Z,63.80
2022-11-11T12:43:13.161Z,64.21
2022-11-11T12:45:49.792Z,63.67
2022-11-11T12:48:37.562Z,63.59
2022-11-11T12:51:20.483Z,63.66
2022-11-11T12:54:00.801Z,64.30
2022-11-11T12:56:45.477Z,64.08
2022-11-11T12:59:32.782Z,64.04
2022-11-11T13:02:32.585Z,64.33
2022-11-11T13:05:13.059Z,64.44
2022-11-11T13:08:11.639Z,64.40
2022-11-11T13:10:49.557Z,64.38
2022-11-11T13:13:36.189Z,64.21
2022-11-11T13:16:11.330Z,64.64
2022-11-11T13:18:58.734Z,64.18
2022-11-11T13:21:38.491Z,64.40
2022-11-11T13:24:13.658Z,64.40
2022-11-11T13:26:50.638Z,64.23
2022-11-11T13:29:48.654Z,64.30
2022-11-11T13:32:29.768Z,63.89
2022-11-11T13:35:03.101Z,64.41
2022-11-11T13:37:37.444Z,64.75
2022-11-11T13:40:25.973Z,65.02
2022-11-11T13:42:58.853Z,64.98
2022-11-11T13:45:36.524Z,64.98
2022-11-11T13:48:21.927Z,64.88
2022-11-11T13:51:12.166Z,65.38
2022-11-11T13:53:48.306Z,65.31
2022-11-11T13:56:27.988Z,65.70
2022-11-11T13:59:01.605Z,65.80
2022-11-11T14:01:41.934Z,66.29
2022-11-11T14:04:17.235Z,66.15
2022-11-11T14:06:56.839Z,65.92
2022-11-11T14:10:00.310Z,66.27
2022-11-11T14:12:39.387Z,66.56
2022-11-11T14:15:36.147Z,66.05
2022-11-11T14:18:12.392Z,66.11
2022-11-11T14:20:49.117Z,66.15
2022-11-11T14:23:45.998Z,65.71
2022-11-11T14:26:30.176Z,66.00
2022-11-11T14:29:04.551Z,66.17
2022-11-11T14:31:57.037Z,65.90
2022-11-11T14:34:49.452Z,65.88
2022-11-11T14:37:33.202Z,66.22
2022-11-11T14:40:12.449Z,66.11
2022-11-11T14:42:47.388Z,66.29
2022-11-11T14:46:00.914Z,66.06
2022-11-11T14:48:53.532Z,66.14
2022-11-11T14:51:51.532Z,66.18
2022-11-11T14:55:02.745Z,66.16
2022-11-11T14:57:40.020Z,66.17
2022-11-11T15:00:16.642Z,66.25
2022-11-11T15:02:54.371Z,66.38
2022-11-11T15:05:43.270Z,66.51
2022-11-11T15:08:22.802Z,66.73
2022-11-11T15:11:07.902Z,66.81
2022-11-11T15:14:08.128Z,66.79
2022-11-11T15:17:00.401Z,66.95
2022-11-11T15:19:51.478Z,67.00
2022-11-11T15:22:52.995Z,67.07
2022-11-11T15:25:36.085Z,67.34
2022-11-11T15:28:21.993Z,67.31
2022-11-11T15:31:04.116Z,67.36
2022-11-11T15:33:51.777Z,67.61
2022-11-11T15:36:35.498Z,67.64
2022-11-11T15:39:15.343Z,67.90
2022-11-11T15:41:52.024Z,68.04
2022-11-11T15:44:30.321Z,68.03
2022-11-11T15:47:05.225Z,68.24
2022-11-11T15:49:39.653Z,68.31
2022-11-11T15:52:31.099Z,67.75
2022-11-11T15:55:25.781Z,68.08
2022-11-11T15:58:10.245Z,68.00
2022-11-11T16:00:44.625Z,68.51
2022-11-11T16:03:22.209Z,68.30
2022-11-11T16:05:55.133Z,68.17
2022-11-11T16:08:28.225Z,68.24
2022-11-11T16:11:02.879Z,68.00
2022-11-11T16:13:38.832Z,68.18
2022-11-11T16:16:16.851Z,68.16
2022-11-11T16:18:56.116Z,68.04
2022-11-11T16:21:33.250Z,68.28
2022-11-11T16:24:16.189Z,68.36
2022-11-11T16:26:49.415Z,68.71
2022-11-11T16:29:24.761Z,68.59
2022-11-11T16:31:57.733Z,68.83
2022-11-11T16:34:42.948Z,68.63
2022-11-11T16:37:17.324Z,68.79
2022-11-11T16:39:50.342Z,68.59
2022-11-11T16:42:25.325Z,68.70
2022-11-11T16:45:00.585Z,68.69
2022-11-11T16:47:52.137Z,68.53
2022-11-11T16:50:29.387Z,68.89
2022-11-11T16:53:05.026Z,68.96
2022-11-11T16:55:44.550Z,69.07
2022-11-11T16:58:20.583Z,69.25
2022-11-11T17:01:01.305Z,69.07
2022-11-11T17:03:34.413Z,69.14
2022-11-11T17:06:10.173Z,69.06
2022-11-11T17:08:44.737Z,69.15
2022-11-11T17:11:45.717Z,68.98
2022-11-11T17:14:18.579Z,69.30
2022-11-11T17:16:51.500Z,69.44
2022-11-11T17:19:25.417Z,69.43
2022-11-11T17:22:09.115Z,69.04
2022-11-11T17:24:41.952Z,69.12
2022-11-11T17:27:14.787Z,69.11
2022-11-11T17:29:48.275Z,69.02
2022-11-11T17:32:21.075Z,69.11
2022-11-11T17:34:53.994Z,69.10
2022-11-11T17:37:28.243Z,69.05
2022-11-11T17:40:01.028Z,68.97
2022-11-11T17:42:34.437Z,69.27
2022-11-11T17:45:08.721Z,68.71
2022-11-11T17:47:43.780Z,69.34
2022-11-11T17:50:16.987Z,69.41
2022-11-11T17:52:56.178Z,69.36
2022-11-11T17:55:28.951Z,69.46
2022-11-11T17:58:02.123Z,69.68
2022-11-11T18:00:35.546Z,69.85
2022-11-11T18:03:08.378Z,69.58
2022-11-11T18:05:41.243Z,69.72
2022-11-11T18:08:15.457Z,69.63
2022-11-11T18:10:48.262Z,69.76
2022-11-11T18:13:21.082Z,69.85
2022-11-11T18:15:54.322Z,69.84
2022-11-11T18:18:27.906Z,69.70
2022-11-11T18:21:04.905Z,69.46
2022-11-11T18:23:41.204Z,69.62
2022-11-11T18:26:13.989Z,69.54
2022-11-11T18:28:46.789Z,69.60
2022-11-11T18:31:19.767Z,69.36
2022-11-11T18:33:52.609Z,69.65
2022-11-11T18:36:25.444Z,69.44
2022-11-11T18:38:59.667Z,69.70
2022-11-11T18:41:32.719Z,69.50
2022-11-11T18:44:05.699Z,69.79
2022-11-11T18:46:39.082Z,69.66
2022-11-11T18:49:13.813Z,69.76
2022-11-11T18:51:46.838Z,69.97
2022-11-11T18:54:21.407Z,69.70
2022-11-11T18:56:56.349Z,70.00
2022-11-11T18:59:29.094Z,70.16
2022-11-11T19:02:01.927Z,70.02
2022-11-11T19:04:34.800Z,70.03
2022-11-11T19:07:07.733Z,69.80
2022-11-11T19:09:41.983Z,69.77
2022-11-11T19:12:14.850Z,69.86
2022-11-11T19:14:47.699Z,69.67
2022-11-11T19:17:20.582Z,69.57
2022-11-11T19:19:55.478Z,69.79
2022-11-11T19:22:28.567Z,70.06
2022-11-11T19:25:04.870Z,69.93
2022-11-11T19:27:37.704Z,69.89
2022-11-11T19:30:11.699Z,69.60
2022-11-11T19:32:44.528Z,69.75
2022-11-11T19:35:17.399Z,69.94
2022-11-11T19:37:50.221Z,69.79
2022-11-11T19:40:24.474Z,69.66
2022-11-11T19:42:57.269Z,69.63
2022-11-11T19:45:34.327Z,69.93
2022-11-11T19:48:09.541Z,70.11
2022-11-11T19:50:42.920Z,69.85
2022-11-11T19:53:17.061Z,69.74
2022-11-11T19:56:00.365Z,69.47
2022-11-11T19:58:33.726Z,70.10
2022-11-11T20:01:11.273Z,70.10
2022-11-11T20:03:44.848Z,69.90
2022-11-11T20:06:23.282Z,69.75
2022-11-11T20:08:57.832Z,70.01
2022-11-11T20:11:32.008Z,70.05
2022-11-11T20:14:06.025Z,70.04
2022-11-11T20:16:38.944Z,70.06
2022-11-11T20:19:12.465Z,69.72
2022-11-11T20:21:45.410Z,70.14
2022-11-11T20:24:18.173Z,70.07
2022-11-11T20:26:52.857Z,69.92
2022-11-11T20:29:25.861Z,69.70
2022-11-11T20:31:58.679Z,69.94
2022-11-11T20:34:31.499Z,69.80
2022-11-11T20:37:04.267Z,70.12
2022-11-11T20:39:37.137Z,70.12
2022-11-11T20:42:11.503Z,70.20
2022-11-11T20:44:44.288Z,70.11
2022-11-11T20:47:17.314Z,70.02
2022-11-11T20:49:50.262Z,70.44
2022-11-11T20:52:23.047Z,70.04
2022-11-11T20:54:55.835Z,69.98
2022-11-11T20:57:29.971Z,70.12
2022-11-11T21:00:03.070Z,70.46
2022-11-11T21:02:35.846Z,70.04
2022-11-11T21:05:09.291Z,69.67
2022-11-11T21:07:42.078Z,69.80
2022-11-11T21:10:14.865Z,70.32
2022-11-11T21:12:49.048Z,70.41
2022-11-11T21:15:21.965Z,70.20
2022-11-11T21:17:54.830Z,70.64
2022-11-11T21:20:27.742Z,70.06
2022-11-11T21:23:00.471Z,70.34
2022-11-11T21:25:33.389Z,70.24
2022-11-11T21:28:07.746Z,70.04
2022-11-11T21:30:40.561Z,69.65
2022-11-11T21:33:13.398Z,69.39
2022-11-11T21:35:46.264Z,69.68
2022-11-11T21:38:19.040Z,69.84
2022-11-11T21:40:51.851Z,69.76
2022-11-11T21:43:26.545Z,69.78
2022-11-11T21:46:03.440Z,69.18
2022-11-11T21:48:37.116Z,69.79
2022-11-11T21:51:11.992Z,69.25
2022-11-11T21:53:44.844Z,69.23
2022-11-11T21:56:17.983Z,69.57
2022-11-11T21:58:53.755Z,69.62
2022-11-11T22:01:30.423Z,69.57
2022-11-11T22:04:06.176Z,69.80
2022-11-11T22:06:39.672Z,69.48
2022-11-11T22:09:13.268Z,69.69
2022-11-11T22:11:46.147Z,69.59
2022-11-11T22:14:20.402Z,69.54
2022-11-11T22:16:53.307Z,69.92
2022-11-11T22:19:26.196Z,69.54
2022-11-11T22:21:59.127Z,69.58
2022-11-11T22:24:31.959Z,69.89
2022-11-11T22:27:05.073Z,69.19
2022-11-11T22:29:39.267Z,69.54
2022-11-11T22:32:12.218Z,69.50
2022-11-11T22:34:45.053Z,69.55
2022-11-11T22:37:18.058Z,69.25
2022-11-11T22:39:50.939Z,69.05
2022-11-11T22:42:24.166Z,69.05
2022-11-11T22:44:58.359Z,69.18
2022-11-11T22:47:31.298Z,69.18
2022-11-11T22:50:04.545Z,68.69
2022-11-11T22:52:37.498Z,68.86
2022-11-11T22:55:10.682Z,68.92
2022-11-11T22:57:43.685Z,69.12
2022-11-11T23:00:18.374Z,69.05
2022-11-11T23:02:51.245Z,68.91
2022-11-11T23:05:24.542Z,68.66
2022-11-11T23:07:57.400Z,68.77
2022-11-11T23:10:30.279Z,68.83
2022-11-11T23:13:03.147Z,69.03
2022-11-11T23:15:37.342Z,68.77
2022-11-11T23:18:10.181Z,68.74
2022-11-11T23:20:43.036Z,68.98
2022-11-11T23:23:15.975Z,68.57
2022-11-11T23:25:48.919Z,68.97
2022-11-11T23:28:23.432Z,68.75
2022-11-11T23:31:01.909Z,68.23
2022-11-11T23:33:36.366Z,68.57
2022-11-11T23:36:11.279Z,68.14
2022-11-11T23:38:44.795Z,68.43
2022-11-11T23:41:17.861Z,68.63
2022-11-11T23:43:50.784Z,68.57
2022-11-11T23:46:25.164Z,68.27
2022-11-11T23:48:58.132Z,68.89
2022-11-11T23:51:30.941Z,68.50
2022-11-11T23:54:04.621Z,68.57
2022-11-11T23:56:37.480Z,68.74
2022-11-11T23:59:10.711Z,68.63
